Station info - map view · info · telemetry · weather · raw · status · beacons · messages · bulletins · browse · moving · my account
Callsign, ship name or locator: Clear       
It is possible to search using wildcards (*?) after a prefix. Example: OH*
APRS station IZ2PAG-6 - show graphs
Map loading...
Comment: Orobie Soccorso
Mic-E message: In service
Location: 45°47.73' N 10°00.60' E - locator JN55AT10EW - show map - static map
5.9 miles South bearing 170° from Songavazzo, Provincia di Bergamo, Lombardy, Italy [?]
6.6 miles South bearing 180° from Onore, Provincia di Bergamo, Lombardy, Italy
45.7 miles Northeast bearing 60° from Milan, Province of Milan, Lombardy, Italy
53.8 miles Northwest bearing 298° from Verona, Provincia di Verona, Veneto, Italy
Last position: 2018-12-08 04:02:39 EST (8d 23h9m ago)
2018-12-08 10:02:39 CET local time at Songavazzo, Italy [?]
Altitude: 1155 ft
Course: 34°
Speed: 40 MPH
Device: Yaesu: VX-8 (ht)
Last path: IZ2PAG-6>T5TW73 via WIDE1-1,qAR,IR2BY (good)
Positions stored: 5410
Other SSIDs: IZ2PAG-1 IZ2PAG-10 IZ2PAG-11 IZ2PAG-13 IZ2PAG-14 IZ2PAG-2 IZ2PAG-3 IZ2PAG-4 IZ2PAG-5 IZ2PAG-7 IZ2PAG-8 IZ2PAG-9 IZ2PAG-B IZ2PAG-H0 IZ2PAG-N IZ2PAG-R
Stations near current position of IZ2PAG-6 - show more
callsign distance last heard - EST      callsign distance last heard - EST
IU2CMQ-131.7 miles 121°2018-12-17 03:09:22 IZ2PAG-131.7 miles 121°2018-12-15 08:54:17
IW2EJH-101.8 miles 60°2018-12-17 02:57:05 IW2LEW-72.0 miles 0°2018-12-16 06:01:23
IZ2JCD-72.1 miles 333°2018-12-16 05:13:50 IU2HOU-52.2 miles 147°2018-11-25 12:10:55
IU2HOU-H02.4 miles 149°2018-12-17 03:01:23 IU2HOU-72.4 miles 149°2018-12-08 10:37:21
IU2HOU-92.4 miles 149°2018-12-15 03:47:39 IU2CIL-H02.5 miles 75°2018-12-13 05:01:02
IR2DF2.7 miles 170°2018-12-17 03:02:29 IZ2PAG-22.7 miles 170°2018-12-15 00:52:45
L40302392.7 miles 354°2018-11-20 20:34:33 IZ2XSB-93.0 miles 72°2018-12-17 01:52:59
IW2EJH-113.6 miles 56°2018-12-17 02:48:57 IR2UFX-R03.6 miles 163°2018-12-17 03:00:37
IU2HEE-14.0 miles 128°2018-12-11 02:31:33 IU2CMQ-104.4 miles 64°2018-12-17 00:17:32
IU2DYO5.1 miles 243°2018-12-17 03:11:43 IW2EJH-125.4 miles 38°2018-12-17 02:41:02
Stations which heard IZ2PAG-6 directly on radio –
callsign pkts first heard - EST last heard longest (tx => rx) longest at - EST
IR2AO 12 2018-12-08 01:45:49 2018-12-08 03:39:15 JN45XS > JN45PM 32.5 miles 241° 2018-12-08 01:45:49
IR2UBX-11 10 2018-12-08 02:10:13 2018-12-08 03:08:18 JN45XR > JN45MQ 42.6 miles 267° 2018-12-08 03:08:18
IR2BZ 39 2018-12-08 02:23:20 2018-12-08 03:36:14 JN45XR > JN45XO 10.7 miles 169° 2018-12-08 03:36:14
IW2EJH-11 1 2018-12-08 01:04:15 2018-12-08 01:04:15 JN55AT > JN55AT 3.3 miles 57° 2018-12-08 01:04:15
IW2GOB-2 3 2018-12-08 02:38:50 2018-12-08 03:46:26 JN45XR > JN45SH 36.4 miles 212° 2018-12-08 03:43:24
IR1UFB 1 2018-12-08 02:24:21 2018-12-08 02:24:21 JN45XR > JN35WD 106.4 miles 249° 2018-12-08 02:24:21
IR1DM 1 2018-12-08 03:07:14 2018-12-08 03:07:14 JN45XR > JN44JS 87.4 miles 220° 2018-12-08 03:07:14
IR2CW 2 2018-12-08 02:17:52 2018-12-08 02:24:21 JN45XR > JN45NE 53.9 miles 224° 2018-12-08 02:24:21
IR2DF 17 2018-12-08 00:45:00 2018-12-08 01:14:24 JN45XS > JN55AS 3.9 miles 127° 2018-12-08 01:14:24
IK2ILW 14 2018-12-08 01:19:27 2018-12-08 03:40:16 JN45XR > JN45VV 12.4 miles 331° 2018-12-08 03:37:14
IR2UFW 70 2018-12-08 02:09:10 2018-12-08 03:36:13 JN45XR > JN45LI 51.2 miles 241° 2018-12-08 03:36:13
IW2EJH-12 3 2018-12-08 00:42:59 2018-12-08 03:55:34 JN45XS > JN55AU 8.4 miles 53° 2018-12-08 03:55:34
IZ1XBB-1 52 2018-12-08 02:09:14 2018-12-08 03:36:15 JN45XR > JN44KV 77.9 miles 221° 2018-12-08 03:36:15
IR2BY 7 2018-12-08 00:41:59 2018-12-08 04:02:39 JN55AT > JN55BQ 7.5 miles 151° 2018-12-08 00:46:01
IR2UCL 10 2018-12-08 01:46:50 2018-12-08 03:45:25 JN45XR > JN45UP 13.4 miles 241° 2018-12-08 03:42:17
IR2UFH 39 2018-12-08 02:10:10 2018-12-08 03:36:13 JN45XR > JN45KG 61.4 miles 238° 2018-12-08 03:36:13
IR2DQ 4 2018-12-08 02:10:10 2018-12-08 02:30:37 JN45XR > JN55AD 39.5 miles 174° 2018-12-08 02:30:37
IZ2QYZ-10 33 2018-12-08 02:13:52 2018-12-08 03:31:17 JN45XR > JN45NJ 43.7 miles 237° 2018-12-08 03:31:17
IZ1TMF 30 2018-12-08 02:10:10 2018-12-08 03:34:12 JN45XR > JN35PA 137.7 miles 250° 2018-12-08 03:34:12
IR2AL 8 2018-12-08 02:12:12 2018-12-08 03:22:48 JN45XR > JN45OL 38.9 miles 244° 2018-12-08 03:22:48
IW2GOB-12 51 2018-12-08 01:52:09 2018-12-08 03:47:26 JN45XR > JN45SH 36.4 miles 212° 2018-12-08 03:43:59
IZ2DDY 28 2018-12-08 02:59:10 2018-12-08 03:46:28 JN45XR > JN45SH 36.1 miles 214° 2018-12-08 03:46:28
IQ2DK 35 2018-12-08 02:10:10 2018-12-08 03:36:13 JN45XR > JN44MX 67.9 miles 220° 2018-12-08 03:36:13

Only position packets which were originated by the station are shown here. The range statistics show some extra long hops, because some digipeaters do not correctly add themselves to the digipeater path. Please check the raw packets.
About this site
This page shows real-time information collected from the Automatic Position Reporting System Internet network (APRS-IS). APRS is used by amateur (ham) radio operators to transmit real-time position information, weather data, telemetry and messages over the radio. A vehicle equipped with a GPS receiver, a VHF transmitter or HF transceiver and a small computer device called a tracker transmits it's location, speed and course in a small data packet, which is then received by a nearby iGate receiving site which forwards the packet on the Internet. Systems connected to the Internet can send information on the APRS-IS without a radio transmitter, or collect and display information transmitted anywhere in the world.
FAQ · Blog · Discussion group · Linking to aprs.fi · AIS sites · Service status · Database statistics · Advertising on aprs.fi · Technical details · API · Change log · Planned changes · Credits and thanks · Terms Of Service · iPhone/iPad APRS